sensor_id;sensor_type;location;lat;lon;timestamp;pressure;altitude;pressure_sealevel;temperature;humidity
7532;BME280;3807;49.030;8.714;2022-08-07T00:01:13;99876.97;;;25.41;30.60
7532;BME280;3807;49.030;8.714;2022-08-07T00:03:38;99871.91;;;25.40;30.61
7532;BME280;3807;49.030;8.714;2022-08-07T00:06:04;99878.59;;;25.33;30.70
7532;BME280;3807;49.030;8.714;2022-08-07T00:08:30;99871.28;;;25.27;30.75
7532;BME280;3807;49.030;8.714;2022-08-07T00:10:55;99878.00;;;25.19;30.78
7532;BME280;3807;49.030;8.714;2022-08-07T00:13:21;99873.50;;;25.22;30.72
7532;BME280;3807;49.030;8.714;2022-08-07T00:15:48;99876.88;;;25.12;30.83
7532;BME280;3807;49.030;8.714;2022-08-07T00:18:16;99876.06;;;25.12;30.78
7532;BME280;3807;49.030;8.714;2022-08-07T00:20:41;99882.31;;;25.09;30.75
7532;BME280;3807;49.030;8.714;2022-08-07T00:23:07;99884.03;;;24.99;30.78
7532;BME280;3807;49.030;8.714;2022-08-07T00:25:33;99875.97;;;25.02;30.64
7532;BME280;3807;49.030;8.714;2022-08-07T00:27:58;99877.03;;;24.90;30.79
7532;BME280;3807;49.030;8.714;2022-08-07T00:30:24;99873.16;;;24.84;30.77
7532;BME280;3807;49.030;8.714;2022-08-07T00:32:50;99873.16;;;24.84;30.67
7532;BME280;3807;49.030;8.714;2022-08-07T00:35:19;99872.56;;;24.81;30.65
7532;BME280;3807;49.030;8.714;2022-08-07T00:37:45;99873.22;;;24.73;30.76
7532;BME280;3807;49.030;8.714;2022-08-07T00:40:12;99873.59;;;24.68;30.67
7532;BME280;3807;49.030;8.714;2022-08-07T00:42:38;99865.78;;;24.68;30.65
7532;BME280;3807;49.030;8.714;2022-08-07T00:45:04;99861.53;;;24.67;30.64
7532;BME280;3807;49.030;8.714;2022-08-07T00:47:30;99869.72;;;24.63;30.67
7532;BME280;3807;49.030;8.714;2022-08-07T00:49:57;99868.91;;;24.62;30.60
7532;BME280;3807;49.030;8.714;2022-08-07T00:52:22;99867.47;;;24.48;30.76
7532;BME280;3807;49.030;8.714;2022-08-07T00:54:48;99856.31;;;24.46;30.75
7532;BME280;3807;49.030;8.714;2022-08-07T00:57:16;99857.53;;;24.42;30.77
7532;BME280;3807;49.030;8.714;2022-08-07T00:59:42;99855.28;;;24.38;30.74
7532;BME280;3807;49.030;8.714;2022-08-07T01:02:08;99858.97;;;24.35;30.75
7532;BME280;3807;49.030;8.714;2022-08-07T01:04:34;99863.13;;;24.27;30.83
7532;BME280;3807;49.030;8.714;2022-08-07T01:06:59;99857.94;;;24.27;30.78
7532;BME280;3807;49.030;8.714;2022-08-07T01:09:26;99866.69;;;24.25;30.79
7532;BME280;3807;49.030;8.714;2022-08-07T01:11:51;99868.97;;;24.19;30.80
7532;BME280;3807;49.030;8.714;2022-08-07T01:14:18;99865.69;;;24.17;30.77
7532;BME280;3807;49.030;8.714;2022-08-07T01:16:44;99868.28;;;24.17;30.79
7532;BME280;3807;49.030;8.714;2022-08-07T01:19:11;99873.59;;;24.15;30.80
7532;BME280;3807;49.030;8.714;2022-08-07T01:21:36;99870.09;;;24.05;30.90
7532;BME280;3807;49.030;8.714;2022-08-07T01:24:02;99867.62;;;24.04;30.86
7532;BME280;3807;49.030;8.714;2022-08-07T01:26:28;99870.56;;;24.10;30.73
7532;BME280;3807;49.030;8.714;2022-08-07T01:28:54;99870.22;;;24.04;30.79
7532;BME280;3807;49.030;8.714;2022-08-07T01:31:21;99866.09;;;24.01;30.86
7532;BME280;3807;49.030;8.714;2022-08-07T01:33:52;99861.59;;;24.03;30.75
7532;BME280;3807;49.030;8.714;2022-08-07T01:36:18;99860.44;;;23.96;30.87
7532;BME280;3807;49.030;8.714;2022-08-07T01:38:44;99864.13;;;23.93;30.88
7532;BME280;3807;49.030;8.714;2022-08-07T01:41:10;99870.38;;;23.91;30.96
7532;BME280;3807;49.030;8.714;2022-08-07T01:43:36;99871.00;;;23.83;31.08
7532;BME280;3807;49.030;8.714;2022-08-07T01:46:02;99865.66;;;23.85;31.09
7532;BME280;3807;49.030;8.714;2022-08-07T01:48:28;99865.34;;;23.78;31.16
7532;BME280;3807;49.030;8.714;2022-08-07T01:51:06;99863.47;;;23.69;31.25
7532;BME280;3807;49.030;8.714;2022-08-07T01:53:34;99866.06;;;23.69;31.21
7532;BME280;3807;49.030;8.714;2022-08-07T01:56:25;99868.06;;;23.65;31.26
7532;BME280;3807;49.030;8.714;2022-08-07T01:59:00;99865.56;;;23.64;31.27
7532;BME280;3807;49.030;8.714;2022-08-07T02:01:32;99867.59;;;23.60;31.33
7532;BME280;3807;49.030;8.714;2022-08-07T02:04:07;99856.34;;;23.60;31.30
7532;BME280;3807;49.030;8.714;2022-08-07T02:06:37;99854.13;;;23.55;31.37
7532;BME280;3807;49.030;8.714;2022-08-07T02:09:05;99852.50;;;23.54;31.43
7532;BME280;3807;49.030;8.714;2022-08-07T02:11:34;99849.31;;;23.50;31.59
7532;BME280;3807;49.030;8.714;2022-08-07T02:14:01;99852.25;;;23.46;31.73
7532;BME280;3807;49.030;8.714;2022-08-07T02:16:28;99849.78;;;23.44;31.75
7532;BME280;3807;49.030;8.714;2022-08-07T02:18:54;99848.37;;;23.40;31.81
7532;BME280;3807;49.030;8.714;2022-08-07T02:21:20;99847.53;;;23.40;31.87
7532;BME280;3807;49.030;8.714;2022-08-07T02:23:46;99837.62;;;23.34;32.00
7532;BME280;3807;49.030;8.714;2022-08-07T02:26:12;99842.00;;;23.33;32.06
7532;BME280;3807;49.030;8.714;2022-08-07T02:28:39;99845.06;;;23.27;32.16
7532;BME280;3807;49.030;8.714;2022-08-07T02:31:05;99833.13;;;23.24;32.25
7532;BME280;3807;49.030;8.714;2022-08-07T02:33:32;99829.84;;;23.22;32.24
7532;BME280;3807;49.030;8.714;2022-08-07T02:35:59;99828.41;;;23.18;32.31
7532;BME280;3807;49.030;8.714;2022-08-07T02:38:28;99820.59;;;23.18;32.29
7532;BME280;3807;49.030;8.714;2022-08-07T02:40:56;99823.72;;;23.12;32.38
7532;BME280;3807;49.030;8.714;2022-08-07T02:43:23;99816.25;;;23.08;32.34
7532;BME280;3807;49.030;8.714;2022-08-07T02:45:50;99816.25;;;23.08;32.46
7532;BME280;3807;49.030;8.714;2022-08-07T02:48:17;99823.22;;;23.07;32.47
7532;BME280;3807;49.030;8.714;2022-08-07T02:50:46;99820.03;;;23.03;32.45
7532;BME280;3807;49.030;8.714;2022-08-07T02:53:23;99827.25;;;23.00;32.55
7532;BME280;3807;49.030;8.714;2022-08-07T02:55:49;99823.22;;;22.96;32.60
7532;BME280;3807;49.030;8.714;2022-08-07T02:58:18;99821.59;;;22.95;32.56
7532;BME280;3807;49.030;8.714;2022-08-07T03:00:51;99822.72;;;22.91;32.66
7532;BME280;3807;49.030;8.714;2022-08-07T03:03:20;99816.00;;;22.88;32.61
7532;BME280;3807;49.030;8.714;2022-08-07T03:05:49;99811.88;;;22.86;32.62
7532;BME280;3807;49.030;8.714;2022-08-07T03:08:15;99807.34;;;22.76;32.72
7532;BME280;3807;49.030;8.714;2022-08-07T03:10:42;99808.31;;;22.75;32.72
7532;BME280;3807;49.030;8.714;2022-08-07T03:13:10;99802.31;;;22.75;32.72
7532;BME280;3807;49.030;8.714;2022-08-07T03:15:35;99800.97;;;22.69;32.75
7532;BME280;3807;49.030;8.714;2022-08-07T03:18:01;99806.31;;;22.68;32.80
7532;BME280;3807;49.030;8.714;2022-08-07T03:20:26;99809.72;;;22.68;32.74
7532;BME280;3807;49.030;8.714;2022-08-07T03:22:53;99817.87;;;22.64;32.83
7532;BME280;3807;49.030;8.714;2022-08-07T03:25:19;99816.56;;;22.58;32.87
7532;BME280;3807;49.030;8.714;2022-08-07T03:27:45;99811.94;;;22.50;33.05
7532;BME280;3807;49.030;8.714;2022-08-07T03:30:13;99817.00;;;22.52;33.09
7532;BME280;3807;49.030;8.714;2022-08-07T03:32:41;99819.72;;;22.50;33.16
7532;BME280;3807;49.030;8.714;2022-08-07T03:35:20;99828.34;;;22.51;33.16
7532;BME280;3807;49.030;8.714;2022-08-07T03:37:52;99822.78;;;22.44;33.24
7532;BME280;3807;49.030;8.714;2022-08-07T03:40:19;99828.19;;;22.41;33.31
7532;BME280;3807;49.030;8.714;2022-08-07T03:42:45;99835.22;;;22.28;33.55
7532;BME280;3807;49.030;8.714;2022-08-07T03:45:10;99838.09;;;22.25;33.67
7532;BME280;3807;49.030;8.714;2022-08-07T03:47:36;99834.53;;;22.26;33.62
7532;BME280;3807;49.030;8.714;2022-08-07T03:50:03;99834.19;;;22.06;34.01
7532;BME280;3807;49.030;8.714;2022-08-07T03:52:29;99833.16;;;22.09;33.97
7532;BME280;3807;49.030;8.714;2022-08-07T03:54:59;99836.56;;;22.09;33.89
7532;BME280;3807;49.030;8.714;2022-08-07T03:57:26;99842.69;;;22.08;33.97
7532;BME280;3807;49.030;8.714;2022-08-07T03:59:53;99845.25;;;21.97;34.17
7532;BME280;3807;49.030;8.714;2022-08-07T04:02:18;99843.88;;;22.04;34.04
7532;BME280;3807;49.030;8.714;2022-08-07T04:04:44;99839.91;;;21.87;34.38
7532;BME280;3807;49.030;8.714;2022-08-07T04:07:10;99834.75;;;21.75;34.66
7532;BME280;3807;49.030;8.714;2022-08-07T04:09:35;99839.66;;;21.67;34.77
7532;BME280;3807;49.030;8.714;2022-08-07T04:12:01;99826.91;;;21.63;34.82
7532;BME280;3807;49.030;8.714;2022-08-07T04:14:27;99831.75;;;21.68;34.81
7532;BME280;3807;49.030;8.714;2022-08-07T04:16:53;99829.50;;;21.63;34.92
7532;BME280;3807;49.030;8.714;2022-08-07T04:19:18;99835.53;;;21.64;34.95
7532;BME280;3807;49.030;8.714;2022-08-07T04:21:44;99839.00;;;21.52;35.14
7532;BME280;3807;49.030;8.714;2022-08-07T04:24:09;99829.84;;;21.59;35.05
7532;BME280;3807;49.030;8.714;2022-08-07T04:26:39;99834.63;;;21.52;35.23
7532;BME280;3807;49.030;8.714;2022-08-07T04:29:06;99837.66;;;21.46;35.28
7532;BME280;3807;49.030;8.714;2022-08-07T04:31:38;99842.00;;;21.33;35.51
7532;BME280;3807;49.030;8.714;2022-08-07T04:34:05;99844.72;;;21.31;35.53
7532;BME280;3807;49.030;8.714;2022-08-07T04:36:30;99847.72;;;21.25;35.74
7532;BME280;3807;49.030;8.714;2022-08-07T04:38:56;99848.25;;;21.17;35.90
7532;BME280;3807;49.030;8.714;2022-08-07T04:41:22;99849.81;;;21.07;36.08
7532;BME280;3807;49.030;8.714;2022-08-07T04:43:47;99857.38;;;20.98;36.26
7532;BME280;3807;49.030;8.714;2022-08-07T04:54:07;99873.13;;;20.94;36.35
7532;BME280;3807;49.030;8.714;2022-08-07T04:56:45;99868.28;;;20.90;36.42
7532;BME280;3807;49.030;8.714;2022-08-07T04:59:16;99870.94;;;20.88;36.43
7532;BME280;3807;49.030;8.714;2022-08-07T05:01:52;99865.16;;;20.98;36.28
7532;BME280;3807;49.030;8.714;2022-08-07T05:04:40;99868.66;;;20.84;36.59
7532;BME280;3807;49.030;8.714;2022-08-07T05:07:17;99881.72;;;20.82;36.70
7532;BME280;3807;49.030;8.714;2022-08-07T05:09:58;99876.12;;;20.76;36.77
7532;BME280;3807;49.030;8.714;2022-08-07T05:12:34;99870.84;;;20.77;36.73
7532;BME280;3807;49.030;8.714;2022-08-07T05:15:09;99867.94;;;20.69;36.96
7532;BME280;3807;49.030;8.714;2022-08-07T05:17:49;99875.91;;;20.66;36.98
7532;BME280;3807;49.030;8.714;2022-08-07T05:20:18;99876.84;;;20.65;36.89
7532;BME280;3807;49.030;8.714;2022-08-07T05:22:50;99868.53;;;20.60;36.95
7532;BME280;3807;49.030;8.714;2022-08-07T05:25:18;99883.06;;;20.62;37.06
7532;BME280;3807;49.030;8.714;2022-08-07T05:27:45;99882.62;;;20.56;37.11
7532;BME280;3807;49.030;8.714;2022-08-07T05:30:12;99882.81;;;20.53;37.33
7532;BME280;3807;49.030;8.714;2022-08-07T05:32:38;99880.97;;;20.55;37.30
7532;BME280;3807;49.030;8.714;2022-08-07T05:35:06;99876.09;;;20.50;37.37
7532;BME280;3807;49.030;8.714;2022-08-07T05:37:33;99880.22;;;20.53;37.41
7532;BME280;3807;49.030;8.714;2022-08-07T05:40:00;99882.94;;;20.51;37.40
7532;BME280;3807;49.030;8.714;2022-08-07T05:42:26;99882.94;;;20.51;37.35
7532;BME280;3807;49.030;8.714;2022-08-07T05:44:53;99880.22;;;20.53;37.24
7532;BME280;3807;49.030;8.714;2022-08-07T05:47:19;99877.13;;;20.60;37.31
7532;BME280;3807;49.030;8.714;2022-08-07T05:49:49;99882.53;;;20.57;37.41
7532;BME280;3807;49.030;8.714;2022-08-07T05:52:16;99884.59;;;20.52;37.31
7532;BME280;3807;49.030;8.714;2022-08-07T05:54:42;99894.00;;;20.53;37.51
7532;BME280;3807;49.030;8.714;2022-08-07T05:57:08;99890.19;;;20.59;37.34
7532;BME280;3807;49.030;8.714;2022-08-07T05:59:36;99891.63;;;20.63;37.32
7532;BME280;3807;49.030;8.714;2022-08-07T06:02:04;99897.00;;;20.60;37.37
7532;BME280;3807;49.030;8.714;2022-08-07T06:04:33;99898.16;;;20.56;37.40
7532;BME280;3807;49.030;8.714;2022-08-07T06:07:02;99896.31;;;20.58;37.41
7532;BME280;3807;49.030;8.714;2022-08-07T06:09:31;99901.16;;;20.62;37.27
7532;BME280;3807;49.030;8.714;2022-08-07T06:11:57;99898.06;;;20.70;37.06
7532;BME280;3807;49.030;8.714;2022-08-07T06:14:23;99906.66;;;20.58;37.44
7532;BME280;3807;49.030;8.714;2022-08-07T06:16:50;99904.59;;;20.63;37.41
7532;BME280;3807;49.030;8.714;2022-08-07T06:19:17;99909.25;;;20.70;37.26
7532;BME280;3807;49.030;8.714;2022-08-07T06:21:44;99902.31;;;20.71;37.16
7532;BME280;3807;49.030;8.714;2022-08-07T06:24:09;99911.84;;;20.70;37.18
7532;BME280;3807;49.030;8.714;2022-08-07T06:26:38;99904.72;;;20.87;36.87
7532;BME280;3807;49.030;8.714;2022-08-07T06:29:04;99904.28;;;20.80;37.23
7532;BME280;3807;49.030;8.714;2022-08-07T06:31:29;99911.75;;;20.85;37.00
7532;BME280;3807;49.030;8.714;2022-08-07T06:33:54;99910.09;;;20.84;37.14
7532;BME280;3807;49.030;8.714;2022-08-07T06:36:20;99904.31;;;20.93;37.06
7532;BME280;3807;49.030;8.714;2022-08-07T06:38:45;99908.87;;;20.89;37.07
7532;BME280;3807;49.030;8.714;2022-08-07T06:41:24;99907.94;;;20.90;37.00
7532;BME280;3807;49.030;8.714;2022-08-07T06:43:52;99901.19;;;21.01;36.73
7532;BME280;3807;49.030;8.714;2022-08-07T06:46:19;99898.91;;;20.83;37.33
7532;BME280;3807;49.030;8.714;2022-08-07T06:48:45;99905.34;;;21.03;36.95
7532;BME280;3807;49.030;8.714;2022-08-07T06:51:15;99904.00;;;20.98;36.92
7532;BME280;3807;49.030;8.714;2022-08-07T06:53:41;99903.91;;;20.99;37.12
7532;BME280;3807;49.030;8.714;2022-08-07T06:56:09;99897.88;;;20.99;37.37
7532;BME280;3807;49.030;8.714;2022-08-07T06:58:36;99893.75;;;20.96;37.53
7532;BME280;3807;49.030;8.714;2022-08-07T07:01:06;99898.62;;;21.01;37.39
7532;BME280;3807;49.030;8.714;2022-08-07T07:03:34;99894.16;;;21.03;37.60
7532;BME280;3807;49.030;8.714;2022-08-07T07:06:01;99900.88;;;21.05;38.80
7532;BME280;3807;49.030;8.714;2022-08-07T07:08:28;99894.06;;;21.04;37.22
7532;BME280;3807;49.030;8.714;2022-08-07T07:10:53;99896.34;;;20.96;37.69
7532;BME280;3807;49.030;8.714;2022-08-07T07:13:28;99891.59;;;21.03;37.63
7532;BME280;3807;49.030;8.714;2022-08-07T07:15:59;99893.53;;;21.12;37.57
7532;BME280;3807;49.030;8.714;2022-08-07T07:18:58;99894.16;;;21.15;37.51
7532;BME280;3807;49.030;8.714;2022-08-07T07:21:29;99890.41;;;21.20;38.33
7532;BME280;3807;49.030;8.714;2022-08-07T07:23:56;99895.28;;;21.24;37.42
7532;BME280;3807;49.030;8.714;2022-08-07T07:26:22;99890.66;;;21.16;37.46
7532;BME280;3807;49.030;8.714;2022-08-07T07:28:55;99895.28;;;21.11;37.39
7532;BME280;3807;49.030;8.714;2022-08-07T07:31:36;99889.72;;;21.17;37.54
7532;BME280;3807;49.030;8.714;2022-08-07T07:34:07;99884.09;;;21.24;37.19
7532;BME280;3807;49.030;8.714;2022-08-07T07:36:34;99886.78;;;21.22;37.40
7532;BME280;3807;49.030;8.714;2022-08-07T07:39:03;99886.00;;;21.34;37.09
7532;BME280;3807;49.030;8.714;2022-08-07T07:41:31;99883.41;;;21.34;37.19
7532;BME280;3807;49.030;8.714;2022-08-07T07:43:59;99881.19;;;21.28;37.25
7532;BME280;3807;49.030;8.714;2022-08-07T07:46:27;99882.13;;;21.27;37.10
7532;BME280;3807;49.030;8.714;2022-08-07T07:48:55;99885.63;;;21.26;37.17
7532;BME280;3807;49.030;8.714;2022-08-07T07:51:23;99878.41;;;21.31;37.27
7532;BME280;3807;49.030;8.714;2022-08-07T07:53:49;99878.47;;;21.30;37.81
7532;BME280;3807;49.030;8.714;2022-08-07T07:56:16;99879.44;;;21.29;37.61
7532;BME280;3807;49.030;8.714;2022-08-07T07:58:42;99877.78;;;21.40;37.50
7532;BME280;3807;49.030;8.714;2022-08-07T08:01:09;99879.66;;;21.38;37.75
7532;BME280;3807;49.030;8.714;2022-08-07T08:03:36;99876.44;;;21.35;37.87
7532;BME280;3807;49.030;8.714;2022-08-07T08:06:03;99878.19;;;21.47;38.29
7532;BME280;3807;49.030;8.714;2022-08-07T08:08:30;99872.37;;;21.44;38.69
7532;BME280;3807;49.030;8.714;2022-08-07T08:11:02;99873.00;;;21.47;38.25
7532;BME280;3807;49.030;8.714;2022-08-07T08:13:28;99877.97;;;21.50;38.52
7532;BME280;3807;49.030;8.714;2022-08-07T08:15:56;99872.47;;;21.55;38.54
7532;BME280;3807;49.030;8.714;2022-08-07T08:18:23;99871.59;;;21.67;39.52
7532;BME280;3807;49.030;8.714;2022-08-07T08:20:50;99873.94;;;21.83;38.91
7532;BME280;3807;49.030;8.714;2022-08-07T08:23:18;99865.22;;;21.84;39.08
7532;BME280;3807;49.030;8.714;2022-08-07T08:26:04;99871.63;;;21.91;39.07
7532;BME280;3807;49.030;8.714;2022-08-07T08:28:51;99864.56;;;21.93;38.99
7532;BME280;3807;49.030;8.714;2022-08-07T08:31:25;99874.78;;;22.07;39.34
7532;BME280;3807;49.030;8.714;2022-08-07T08:33:53;99869.22;;;22.25;39.79
7532;BME280;3807;49.030;8.714;2022-08-07T08:36:22;99868.09;;;22.16;41.30
7532;BME280;3807;49.030;8.714;2022-08-07T08:38:48;99863.09;;;22.26;41.79
7532;BME280;3807;49.030;8.714;2022-08-07T08:41:23;99862.75;;;22.42;41.42
7532;BME280;3807;49.030;8.714;2022-08-07T08:49:32;99853.31;;;22.41;39.05
7532;BME280;3807;49.030;8.714;2022-08-07T08:52:10;99858.75;;;22.38;39.71
7532;BME280;3807;49.030;8.714;2022-08-07T08:54:58;99860.53;;;22.48;39.74
7532;BME280;3807;49.030;8.714;2022-08-07T08:57:39;99856.16;;;22.49;39.39
7532;BME280;3807;49.030;8.714;2022-08-07T09:00:08;99856.78;;;22.52;39.79
7532;BME280;3807;49.030;8.714;2022-08-07T09:05:33;99844.78;;;22.74;39.37
7532;BME280;3807;49.030;8.714;2022-08-07T09:14:03;99840.53;;;22.73;39.00
7532;BME280;3807;49.030;8.714;2022-08-07T09:16:43;99839.47;;;22.87;38.88
7532;BME280;3807;49.030;8.714;2022-08-07T09:22:23;99830.75;;;22.88;38.90
7532;BME280;3807;49.030;8.714;2022-08-07T09:25:05;99841.87;;;23.01;38.78
7532;BME280;3807;49.030;8.714;2022-08-07T09:30:08;99835.50;;;23.16;38.67
7532;BME280;3807;49.030;8.714;2022-08-07T09:32:59;99835.38;;;23.29;38.33
7532;BME280;3807;49.030;8.714;2022-08-07T09:40:41;99832.63;;;23.42;37.73
7532;BME280;3807;49.030;8.714;2022-08-07T09:54:07;99822.22;;;23.64;37.01
7532;BME280;3807;49.030;8.714;2022-08-07T09:59:30;99807.56;;;23.74;36.76
7532;BME280;3807;49.030;8.714;2022-08-07T10:08:28;99800.66;;;24.27;35.52
7532;BME280;3807;49.030;8.714;2022-08-07T10:11:20;99801.97;;;24.53;35.25
7532;BME280;3807;49.030;8.714;2022-08-07T10:14:08;99795.19;;;24.41;35.45
7532;BME280;3807;49.030;8.714;2022-08-07T10:28:10;99770.50;;;24.97;34.11
7532;BME280;3807;49.030;8.714;2022-08-07T10:30:52;99768.22;;;25.13;33.77
7532;BME280;3807;49.030;8.714;2022-08-07T10:33:55;99770.31;;;25.29;33.41
7532;BME280;3807;49.030;8.714;2022-08-07T10:42:10;99767.50;;;25.80;32.69
7532;BME280;3807;49.030;8.714;2022-08-07T10:45:02;99756.22;;;25.89;32.34
7532;BME280;3807;49.030;8.714;2022-08-07T10:50:11;99744.25;;;26.06;32.01
7532;BME280;3807;49.030;8.714;2022-08-07T10:56:03;99753.62;;;26.46;31.08
7532;BME280;3807;49.030;8.714;2022-08-07T11:04:00;99754.31;;;26.58;30.85
7532;BME280;3807;49.030;8.714;2022-08-07T11:06:40;99745.50;;;26.87;30.19
7532;BME280;3807;49.030;8.714;2022-08-07T11:09:13;99738.00;;;27.01;29.77
7532;BME280;3807;49.030;8.714;2022-08-07T11:11:57;99736.72;;;27.05;30.06
7532;BME280;3807;49.030;8.714;2022-08-07T11:14:29;99726.94;;;27.35;29.36
7532;BME280;3807;49.030;8.714;2022-08-07T11:17:10;99731.12;;;27.46;29.58
7532;BME280;3807;49.030;8.714;2022-08-07T11:19:46;99736.34;;;27.46;29.66
7532;BME280;3807;49.030;8.714;2022-08-07T11:22:29;99721.94;;;27.60;29.35
7532;BME280;3807;49.030;8.714;2022-08-07T11:25:04;99726.78;;;27.90;28.87
7532;BME280;3807;49.030;8.714;2022-08-07T11:28:34;99720.69;;;27.72;29.15
7532;BME280;3807;49.030;8.714;2022-08-07T11:31:14;99713.34;;;28.11;28.46
7532;BME280;3807;49.030;8.714;2022-08-07T12:08:22;99690.56;;;29.72;26.20
7532;BME280;3807;49.030;8.714;2022-08-07T12:11:22;99689.19;;;30.00;26.08
7532;BME280;3807;49.030;8.714;2022-08-07T12:13:56;99683.75;;;30.18;25.56
7532;BME280;3807;49.030;8.714;2022-08-07T12:16:30;99694.41;;;30.25;25.38
7532;BME280;3807;49.030;8.714;2022-08-07T12:19:25;99686.81;;;30.38;25.89
7532;BME280;3807;49.030;8.714;2022-08-07T12:21:57;99679.38;;;30.50;25.21
7532;BME280;3807;49.030;8.714;2022-08-07T12:27:28;99672.56;;;30.64;25.35
7532;BME280;3807;49.030;8.714;2022-08-07T12:30:02;99681.41;;;30.79;24.55
7532;BME280;3807;49.030;8.714;2022-08-07T12:32:49;99677.84;;;30.95;24.28
7532;BME280;3807;49.030;8.714;2022-08-07T12:35:16;99671.41;;;31.20;24.33
7532;BME280;3807;49.030;8.714;2022-08-07T12:37:47;99666.78;;;31.22;23.72
7532;BME280;3807;49.030;8.714;2022-08-07T12:40:18;99672.41;;;31.19;24.23
7532;BME280;3807;49.030;8.714;2022-08-07T12:42:44;99666.91;;;31.52;23.24
7532;BME280;3807;49.030;8.714;2022-08-07T12:45:14;99663.41;;;31.60;23.60
7532;BME280;3807;49.030;8.714;2022-08-07T12:47:58;99665.22;;;31.59;23.39
7532;BME280;3807;49.030;8.714;2022-08-07T12:50:51;99669.25;;;31.47;24.02
7532;BME280;3807;49.030;8.714;2022-08-07T12:53:28;99669.75;;;31.65;23.08
7532;BME280;3807;49.030;8.714;2022-08-07T12:56:21;99664.63;;;31.87;22.99
7532;BME280;3807;49.030;8.714;2022-08-07T12:58:50;99654.25;;;32.15;22.84
7532;BME280;3807;49.030;8.714;2022-08-07T13:09:39;99645.09;;;32.77;22.51
7532;BME280;3807;49.030;8.714;2022-08-07T13:17:32;99647.50;;;32.93;22.11
7532;BME280;3807;49.030;8.714;2022-08-07T13:20:05;99646.03;;;32.90;22.11
7532;BME280;3807;49.030;8.714;2022-08-07T13:22:53;99642.97;;;32.87;22.14
7532;BME280;3807;49.030;8.714;2022-08-07T13:26:04;99641.59;;;33.12;22.23
7532;BME280;3807;49.030;8.714;2022-08-07T13:28:18;99644.78;;;33.29;22.03
7532;BME280;3807;49.030;8.714;2022-08-07T13:30:57;99634.22;;;33.29;21.85
7532;BME280;3807;49.030;8.714;2022-08-07T13:33:32;99637.44;;;33.25;21.88
7532;BME280;3807;49.030;8.714;2022-08-07T13:36:04;99637.19;;;33.41;21.32
7532;BME280;3807;49.030;8.714;2022-08-07T13:38:46;99628.84;;;33.65;21.88
7532;BME280;3807;49.030;8.714;2022-08-07T13:43:43;99615.25;;;33.75;21.38
7532;BME280;3807;49.030;8.714;2022-08-07T13:46:11;99612.06;;;33.80;21.73
7532;BME280;3807;49.030;8.714;2022-08-07T13:48:37;99618.22;;;33.59;21.79
7532;BME280;3807;49.030;8.714;2022-08-07T13:51:07;99612.47;;;33.83;21.31
7532;BME280;3807;49.030;8.714;2022-08-07T13:53:37;99613.88;;;33.79;20.69
7532;BME280;3807;49.030;8.714;2022-08-07T13:56:05;99605.19;;;33.92;21.52
7532;BME280;3807;49.030;8.714;2022-08-07T13:58:39;99598.41;;;34.11;21.12
7532;BME280;3807;49.030;8.714;2022-08-07T14:01:26;99596.03;;;33.88;20.99
7532;BME280;3807;49.030;8.714;2022-08-07T14:03:55;99594.44;;;33.94;20.76
7532;BME280;3807;49.030;8.714;2022-08-07T14:06:22;99595.78;;;34.11;22.49
7532;BME280;3807;49.030;8.714;2022-08-07T14:08:56;99588.47;;;34.20;20.72
7532;BME280;3807;49.030;8.714;2022-08-07T14:11:25;99597.81;;;34.16;20.88
7532;BME280;3807;49.030;8.714;2022-08-07T14:13:56;99586.44;;;34.15;21.28
7532;BME280;3807;49.030;8.714;2022-08-07T14:16:35;99573.16;;;34.02;22.37
7532;BME280;3807;49.030;8.714;2022-08-07T14:19:13;99583.00;;;34.21;22.08
7532;BME280;3807;49.030;8.714;2022-08-07T14:21:42;99584.69;;;34.42;20.59
7532;BME280;3807;49.030;8.714;2022-08-07T14:24:32;99589.44;;;34.67;20.23
7532;BME280;3807;49.030;8.714;2022-08-07T14:27:02;99571.47;;;34.49;20.30
7532;BME280;3807;49.030;8.714;2022-08-07T14:29:32;99587.88;;;34.31;20.65
7532;BME280;3807;49.030;8.714;2022-08-07T14:32:02;99576.56;;;34.50;22.06
7532;BME280;3807;49.030;8.714;2022-08-07T14:34:30;99577.53;;;34.36;20.39
7532;BME280;3807;49.030;8.714;2022-08-07T14:37:00;99578.75;;;34.33;20.42
7532;BME280;3807;49.030;8.714;2022-08-07T14:39:28;99578.12;;;34.38;21.68
7532;BME280;3807;49.030;8.714;2022-08-07T14:41:54;99564.81;;;34.59;22.12
7532;BME280;3807;49.030;8.714;2022-08-07T14:44:21;99568.84;;;34.49;20.29
7532;BME280;3807;49.030;8.714;2022-08-07T14:46:49;99572.75;;;34.59;20.21
7532;BME280;3807;49.030;8.714;2022-08-07T14:49:23;99569.41;;;34.44;20.95
7532;BME280;3807;49.030;8.714;2022-08-07T14:51:55;99563.91;;;34.39;20.46
7532;BME280;3807;49.030;8.714;2022-08-07T14:54:21;99565.94;;;34.37;20.33
7532;BME280;3807;49.030;8.714;2022-08-07T14:56:49;99552.13;;;34.35;20.28
7532;BME280;3807;49.030;8.714;2022-08-07T14:59:20;99559.47;;;34.46;20.35
7532;BME280;3807;49.030;8.714;2022-08-07T15:01:46;99562.97;;;34.53;19.99
7532;BME280;3807;49.030;8.714;2022-08-07T15:04:11;99555.59;;;34.49;19.95
7532;BME280;3807;49.030;8.714;2022-08-07T15:06:42;99562.75;;;34.61;19.92
7532;BME280;3807;49.030;8.714;2022-08-07T15:09:14;99554.25;;;34.66;20.62
7532;BME280;3807;49.030;8.714;2022-08-07T15:11:53;99557.47;;;34.68;20.28
7532;BME280;3807;49.030;8.714;2022-08-07T15:14:22;99556.69;;;34.81;19.87
7532;BME280;3807;49.030;8.714;2022-08-07T15:16:53;99559.28;;;34.54;20.02
7532;BME280;3807;49.030;8.714;2022-08-07T15:19:23;99554.34;;;34.38;20.17
7532;BME280;3807;49.030;8.714;2022-08-07T15:21:52;99558.09;;;34.57;20.14
7532;BME280;3807;49.030;8.714;2022-08-07T15:24:39;99556.25;;;34.57;19.37
7532;BME280;3807;49.030;8.714;2022-08-07T15:27:25;99552.13;;;34.48;19.90
7532;BME280;3807;49.030;8.714;2022-08-07T15:29:58;99550.47;;;34.34;20.23
7532;BME280;3807;49.030;8.714;2022-08-07T15:32:24;99541.53;;;34.35;19.86
7532;BME280;3807;49.030;8.714;2022-08-07T15:34:54;99545.78;;;34.29;19.86
7532;BME280;3807;49.030;8.714;2022-08-07T15:37:28;99542.34;;;34.29;19.79
7532;BME280;3807;49.030;8.714;2022-08-07T15:39:57;99546.41;;;34.38;19.10
7532;BME280;3807;49.030;8.714;2022-08-07T15:42:45;99537.66;;;34.44;19.97
7532;BME280;3807;49.030;8.714;2022-08-07T15:45:35;99533.44;;;34.50;19.84
7532;BME280;3807;49.030;8.714;2022-08-07T15:48:12;99529.56;;;34.59;19.34
7532;BME280;3807;49.030;8.714;2022-08-07T15:50:41;99528.34;;;34.55;19.79
7532;BME280;3807;49.030;8.714;2022-08-07T15:53:09;99526.28;;;34.50;19.75
7532;BME280;3807;49.030;8.714;2022-08-07T15:55:40;99524.00;;;34.14;19.14
7532;BME280;3807;49.030;8.714;2022-08-07T15:58:08;99531.94;;;34.21;19.93